Time;durP1;ratioP1;P1;durP2;ratioP2;P2;SDS_P1;SDS_P2;PMS_P1;PMS_P2;Temp;Humidity;BMP_temperature;BMP_pressure;BME280_temperature;BME280_humidity;BME280_pressure;Samples;Min_cycle;Max_cycle;Signal;HPM_P1;HPM_P2
2024/01/27 00:00:41;;;;;;;9.03;2.80;;;;;-0.90;95533.00;;;;7397768;19;20172;-81
2024/01/27 00:03:16;;;;;;;12.57;2.67;;;;;-0.80;95532.00;;;;7399793;19;20145;-83
2024/01/27 00:05:44;;;;;;;12.97;2.87;;;;;-0.90;95535.00;;;;7401469;19;20139;-83
2024/01/27 00:08:18;;;;;;;6.07;2.40;;;;;-1.00;95526.00;;;;7401767;19;20214;-85
2024/01/27 00:10:46;;;;;;;5.67;2.43;;;;;-1.00;95537.00;;;;7400926;19;20133;-85
2024/01/27 00:13:20;;;;;;;8.83;2.90;;;;;-1.00;95540.00;;;;7401162;19;20315;-83
2024/01/27 00:15:54;;;;;;;7.63;3.00;;;;;-0.90;95542.00;;;;7400810;19;20166;-84
2024/01/27 00:18:23;;;;;;;8.40;2.97;;;;;-1.10;95544.00;;;;7402078;19;20474;-82
2024/01/27 00:20:57;;;;;;;8.80;2.60;;;;;-1.20;95542.00;;;;7401914;19;20133;-81
2024/01/27 00:23:25;;;;;;;8.60;2.20;;;;;-1.20;95544.00;;;;7399867;19;20141;-84
2024/01/27 00:25:59;;;;;;;10.90;2.77;;;;;-1.20;95551.00;;;;7401094;19;20547;-85
2024/01/27 00:28:27;;;;;;;6.30;2.60;;;;;-1.30;95552.00;;;;7403824;19;20141;-85
2024/01/27 00:31:01;;;;;;;10.77;2.70;;;;;-1.40;95568.00;;;;7402271;19;20141;-85
2024/01/27 00:33:36;;;;;;;10.30;3.00;;;;;-1.30;95555.00;;;;7402077;19;20834;-84
2024/01/27 00:36:10;;;;;;;10.53;3.30;;;;;-1.30;95566.00;;;;7401668;19;20483;-86
2024/01/27 00:38:38;;;;;;;9.60;3.03;;;;;-1.40;95563.00;;;;7401396;19;20638;-85
2024/01/27 00:41:17;;;;;;;8.57;3.03;;;;;-1.50;95565.00;;;;7402072;19;20148;-84
2024/01/27 00:43:45;;;;;;;9.70;3.00;;;;;-1.40;95572.00;;;;7400855;19;20189;-85
2024/01/27 00:46:19;;;;;;;6.77;3.00;;;;;-1.40;95563.00;;;;7402540;19;20135;-84
2024/01/27 00:48:47;;;;;;;6.20;2.90;;;;;-1.40;95576.00;;;;7402102;19;20141;-85
2024/01/27 00:51:21;;;;;;;13.23;3.60;;;;;-1.40;95563.00;;;;7401835;19;20581;-85
2024/01/27 00:53:56;;;;;;;6.57;3.00;;;;;-1.40;95566.00;;;;7401014;19;20140;-84
2024/01/27 00:56:30;;;;;;;8.97;3.40;;;;;-1.30;95564.00;;;;7400498;19;20643;-85
2024/01/27 00:59:18;;;;;;;19.53;3.40;;;;;-1.30;95571.00;;;;7398468;19;20183;-86
2024/01/27 01:01:52;;;;;;;9.73;3.50;;;;;-1.30;95571.00;;;;7398211;19;20169;-85
2024/01/27 01:04:26;;;;;;;11.87;3.73;;;;;-1.20;95573.00;;;;7400843;19;20133;-84
2024/01/27 01:06:54;;;;;;;7.30;3.13;;;;;-1.30;95567.00;;;;7401209;19;20211;-84
2024/01/27 01:09:28;;;;;;;10.53;3.03;;;;;-1.40;95567.00;;;;7400319;19;20140;-84
2024/01/27 01:12:02;;;;;;;8.47;3.27;;;;;-1.40;95576.00;;;;7397589;19;20211;-83
2024/01/27 01:14:30;;;;;;;7.00;3.07;;;;;-1.50;95577.00;;;;7400592;19;20145;-84
2024/01/27 01:16:58;;;;;;;7.70;3.13;;;;;-1.40;95576.00;;;;7399667;19;20145;-83
2024/01/27 01:19:37;;;;;;;12.70;3.20;;;;;-1.40;95586.00;;;;7398970;19;20791;-83
2024/01/27 01:22:05;;;;;;;8.50;3.17;;;;;-1.30;95583.00;;;;7399979;19;20145;-83
2024/01/27 01:24:40;;;;;;;12.23;3.97;;;;;-1.30;95580.00;;;;7398775;19;20521;-83
2024/01/27 01:27:18;;;;;;;13.17;3.20;;;;;-1.30;95572.00;;;;7398770;19;20153;-85
2024/01/27 01:29:53;;;;;;;8.87;3.30;;;;;-1.30;95574.00;;;;7399262;19;20140;-82
2024/01/27 01:32:22;;;;;;;8.97;3.23;;;;;-1.30;95568.00;;;;7397617;19;20133;-84
2024/01/27 01:34:56;;;;;;;8.67;3.13;;;;;-1.20;95568.00;;;;7405047;19;20188;-83
2024/01/27 01:37:24;;;;;;;10.90;3.87;;;;;-1.20;95584.00;;;;7406510;19;20134;-83
2024/01/27 01:39:58;;;;;;;10.07;3.40;;;;;-1.10;95575.00;;;;7403466;19;20151;-80
2024/01/27 01:42:26;;;;;;;12.77;3.63;;;;;-1.10;95583.00;;;;7404767;19;20613;-79
2024/01/27 01:45:00;;;;;;;11.40;3.20;;;;;-1.20;95584.00;;;;7403610;19;20137;-80
2024/01/27 01:47:34;;;;;;;6.03;2.90;;;;;-1.20;95578.00;;;;7405776;19;20144;-81
2024/01/27 01:50:03;;;;;;;11.77;3.50;;;;;-1.20;95580.00;;;;7405131;19;20133;-79
2024/01/27 01:52:44;;;;;;;11.30;3.60;;;;;-1.20;95578.00;;;;7399992;19;20785;-79
2024/01/27 01:55:11;;;;;;;11.47;3.07;;;;;-1.30;95587.00;;;;7405387;19;20613;-80
2024/01/27 01:57:46;;;;;;;12.93;3.90;;;;;-1.10;95582.00;;;;7404148;19;20620;-80
2024/01/27 02:00:21;;;;;;;10.77;3.50;;;;;-1.10;95588.00;;;;7400815;19;20172;-81
2024/01/27 02:02:55;;;;;;;10.83;3.27;;;;;-1.10;95584.00;;;;7403691;19;20547;-81
2024/01/27 02:05:23;;;;;;;10.93;3.60;;;;;-1.10;95591.00;;;;7403499;19;20149;-82
2024/01/27 02:07:59;;;;;;;10.03;4.17;;;;;-0.90;95593.00;;;;7402698;19;20204;-81
2024/01/27 02:10:27;;;;;;;12.37;4.00;;;;;-1.00;95591.00;;;;7402409;19;20629;-80
2024/01/27 02:12:55;;;;;;;15.57;4.13;;;;;-1.00;95603.00;;;;7399800;19;20140;-80
2024/01/27 02:15:29;;;;;;;23.90;4.83;;;;;-1.00;95597.00;;;;7402521;19;20564;-79
2024/01/27 02:17:57;;;;;;;14.50;4.07;;;;;-0.90;95598.00;;;;7402526;19;20137;-80
2024/01/27 02:20:31;;;;;;;20.00;5.00;;;;;-1.00;95601.00;;;;7401912;19;20600;-84
2024/01/27 02:22:59;;;;;;;12.67;4.80;;;;;-1.00;95602.00;;;;7401837;19;20144;-79
2024/01/27 02:25:33;;;;;;;15.03;4.13;;;;;-1.10;95601.00;;;;7401504;19;20600;-80
2024/01/27 02:28:07;;;;;;;16.87;4.20;;;;;-1.00;95599.00;;;;7401657;19;20143;-80
2024/01/27 02:30:35;;;;;;;12.93;4.30;;;;;-1.00;95605.00;;;;7401500;19;20653;-80
2024/01/27 02:33:09;;;;;;;17.00;4.10;;;;;-1.00;95601.00;;;;7398646;19;20204;-80
2024/01/27 02:35:43;;;;;;;9.30;3.90;;;;;-0.90;95605.00;;;;7402143;19;20203;-81
2024/01/27 02:38:18;;;;;;;10.40;4.40;;;;;-0.90;95606.00;;;;7402173;19;20200;-79
2024/01/27 02:40:52;;;;;;;14.83;4.60;;;;;-0.90;95600.00;;;;7400791;19;20141;-80
2024/01/27 02:43:26;;;;;;;12.30;4.73;;;;;-0.80;95605.00;;;;7401165;19;20197;-82
2024/01/27 02:45:54;;;;;;;11.03;4.70;;;;;-0.80;95608.00;;;;7401520;19;20648;-81
2024/01/27 02:48:28;;;;;;;11.80;4.53;;;;;-0.80;95605.00;;;;7402120;19;20223;-84
2024/01/27 02:50:56;;;;;;;13.33;4.73;;;;;-0.70;95604.00;;;;7401333;19;20132;-83
2024/01/27 02:53:30;;;;;;;15.30;4.33;;;;;-0.90;95605.00;;;;7399766;19;20154;-81
2024/01/27 02:55:58;;;;;;;16.37;4.40;;;;;-0.90;95609.00;;;;7401977;19;20192;-82
2024/01/27 02:58:25;;;;;;;18.70;4.90;;;;;-0.80;95600.00;;;;7403399;19;20137;-81
2024/01/27 03:01:05;;;;;;;12.20;3.77;;;;;-0.90;95606.00;;;;7400607;19;20739;-80
2024/01/27 03:03:34;;;;;;;13.03;4.63;;;;;-0.90;95605.00;;;;7401821;19;20624;-81
2024/01/27 03:06:09;;;;;;;8.37;3.60;;;;;-0.90;95603.00;;;;7401468;19;20174;-81
2024/01/27 03:08:43;;;;;;;9.37;4.20;;;;;-0.90;95610.00;;;;7402084;19;20144;-83
2024/01/27 03:11:17;;;;;;;11.90;5.70;;;;;-0.90;95600.00;;;;7400518;19;20154;-83
2024/01/27 03:13:45;;;;;;;11.93;4.30;;;;;-0.90;95600.00;;;;7402092;19;20753;-81
2024/01/27 03:16:19;;;;;;;17.43;4.60;;;;;-1.00;95595.00;;;;7401948;19;20498;-81
2024/01/27 03:18:55;;;;;;;16.87;4.20;;;;;-1.00;95601.00;;;;7402517;19;20137;-80
2024/01/27 03:21:30;;;;;;;12.97;4.40;;;;;-1.10;95610.00;;;;7399990;19;20144;-80
2024/01/27 03:23:58;;;;;;;10.60;3.63;;;;;-1.10;95612.00;;;;7401465;19;20481;-80
2024/01/27 03:26:32;;;;;;;16.90;4.27;;;;;-1.20;95607.00;;;;7401961;19;20132;-80
2024/01/27 03:29:00;;;;;;;13.30;3.93;;;;;-1.30;95619.00;;;;7400376;19;20605;-81
2024/01/27 03:31:34;;;;;;;17.30;3.70;;;;;-1.40;95618.00;;;;7400928;19;20137;-82
2024/01/27 03:34:03;;;;;;;11.37;3.53;;;;;-1.40;95632.00;;;;7400539;19;20142;-81
2024/01/27 03:36:37;;;;;;;12.33;3.93;;;;;-1.50;95633.00;;;;7400599;19;20616;-81
2024/01/27 03:39:07;;;;;;;16.83;4.40;;;;;-1.70;95646.00;;;;7400743;19;20142;-80
2024/01/27 03:41:41;;;;;;;16.10;4.30;;;;;-1.80;95634.00;;;;7399408;19;20136;-81
2024/01/27 03:44:15;;;;;;;13.67;4.00;;;;;-2.00;95638.00;;;;7399101;19;20178;-83
2024/01/27 03:46:51;;;;;;;9.97;3.50;;;;;-2.30;95649.00;;;;7400492;19;20129;-83
2024/01/27 03:49:18;;;;;;;8.63;3.50;;;;;-2.40;95653.00;;;;7399478;19;20161;-80
2024/01/27 03:51:54;;;;;;;12.13;3.90;;;;;-2.40;95648.00;;;;7400070;19;20160;-80
2024/01/27 03:54:28;;;;;;;14.00;3.43;;;;;-2.30;95658.00;;;;7400904;19;20137;-80
2024/01/27 03:57:02;;;;;;;17.87;3.70;;;;;-2.50;95664.00;;;;7397032;19;20132;-80
2024/01/27 03:59:36;;;;;;;12.27;4.03;;;;;-2.40;95661.00;;;;7399103;19;20168;-81
2024/01/27 04:02:16;;;;;;;14.67;4.03;;;;;-2.40;95661.00;;;;7399418;19;20143;-81
2024/01/27 04:04:44;;;;;;;10.53;3.80;;;;;-2.40;95666.00;;;;7399853;19;20546;-80
2024/01/27 04:07:18;;;;;;;14.17;3.77;;;;;-2.30;95665.00;;;;7399785;19;20144;-81
2024/01/27 04:09:47;;;;;;;14.43;3.83;;;;;-2.20;95648.00;;;;7399595;19;20144;-83
2024/01/27 04:12:22;;;;;;;14.07;4.20;;;;;-2.30;95656.00;;;;7398431;19;20140;-81
2024/01/27 04:14:50;;;;;;;12.87;3.63;;;;;-2.30;95657.00;;;;7400191;19;20144;-80
2024/01/27 04:17:26;;;;;;;6.50;3.50;;;;;-2.20;95667.00;;;;7401296;19;20499;-82
2024/01/27 04:20:00;;;;;;;9.87;3.70;;;;;-2.30;95670.00;;;;7398280;19;20152;-82
2024/01/27 04:22:35;;;;;;;12.90;4.00;;;;;-2.40;95675.00;;;;7398712;19;20133;-80
2024/01/27 04:25:03;;;;;;;12.03;4.27;;;;;-2.40;95678.00;;;;7399381;19;20168;-80
2024/01/27 04:27:39;;;;;;;12.27;4.13;;;;;-2.40;95669.00;;;;7398603;19;20147;-80
2024/01/27 04:30:14;;;;;;;12.00;4.07;;;;;-2.40;95667.00;;;;7398690;19;20211;-83
2024/01/27 04:32:42;;;;;;;11.60;4.10;;;;;-2.50;95673.00;;;;7398916;19;20196;-83
2024/01/27 04:35:22;;;;;;;14.57;3.90;;;;;-2.40;95665.00;;;;7398733;19;20152;-83
2024/01/27 04:37:51;;;;;;;6.57;4.07;;;;;-2.50;95675.00;;;;7399223;19;20527;-82
2024/01/27 04:40:25;;;;;;;15.33;4.37;;;;;-2.20;95667.00;;;;7397705;19;20208;-84
2024/01/27 04:42:53;;;;;;;9.67;3.80;;;;;-2.20;95671.00;;;;7397653;19;20147;-81
2024/01/27 04:45:27;;;;;;;16.27;4.37;;;;;-2.20;95673.00;;;;7396753;19;20141;-83
2024/01/27 04:47:55;;;;;;;11.97;4.03;;;;;-2.30;95673.00;;;;7399112;19;20156;-80
2024/01/27 04:50:29;;;;;;;12.07;4.20;;;;;-2.30;95679.00;;;;7399440;19;20142;-80
2024/01/27 04:52:57;;;;;;;11.37;3.83;;;;;-2.30;95673.00;;;;7397744;19;20612;-80
2024/01/27 04:55:31;;;;;;;19.27;4.17;;;;;-2.40;95679.00;;;;7397667;19;20148;-81
2024/01/27 04:57:59;;;;;;;11.70;4.17;;;;;-2.60;95683.00;;;;7397195;19;20140;-80
2024/01/27 05:00:46;;;;;;;13.23;5.40;;;;;-2.40;95679.00;;;;7396058;19;20623;-81
2024/01/27 05:03:15;;;;;;;20.20;3.87;;;;;-2.30;95676.00;;;;7398719;19;20144;-79
2024/01/27 05:05:49;;;;;;;11.50;4.17;;;;;-2.30;95678.00;;;;7398255;19;20466;-78
2024/01/27 05:08:23;;;;;;;8.40;3.80;;;;;-2.40;95676.00;;;;7399350;19;20133;-84
2024/01/27 05:10:58;;;;;;;8.50;3.93;;;;;-2.40;95669.00;;;;7398348;19;20148;-83
2024/01/27 05:13:26;;;;;;;13.67;3.97;;;;;-2.50;95667.00;;;;7398254;19;20144;-82
2024/01/27 05:16:00;;;;;;;14.67;4.47;;;;;-2.50;95659.00;;;;7397316;19;20147;-82
2024/01/27 05:18:28;;;;;;;12.90;3.47;;;;;-2.50;95664.00;;;;7398086;19;20149;-83
2024/01/27 05:20:57;;;;;;;14.43;5.10;;;;;-2.50;95674.00;;;;7397265;19;20631;-83
2024/01/27 05:23:31;;;;;;;13.83;4.30;;;;;-2.50;95674.00;;;;7397134;19;20147;-85
2024/01/27 05:25:59;;;;;;;15.10;4.07;;;;;-2.50;95673.00;;;;7396041;19;20623;-83
2024/01/27 05:28:27;;;;;;;19.33;4.57;;;;;-2.50;95670.00;;;;7398036;19;20129;-84
2024/01/27 05:31:02;;;;;;;12.20;4.57;;;;;-2.50;95654.00;;;;7397487;19;20148;-82
2024/01/27 05:33:30;;;;;;;15.97;4.77;;;;;-2.50;95666.00;;;;7396759;19;20137;-82
2024/01/27 05:36:05;;;;;;;18.70;4.93;;;;;-2.40;95659.00;;;;7397212;19;20555;-83
2024/01/27 05:38:40;;;;;;;18.97;4.53;;;;;-2.40;95669.00;;;;7399974;19;20136;-83
2024/01/27 05:41:08;;;;;;;13.97;4.23;;;;;-2.40;95663.00;;;;7396847;19;20480;-83
2024/01/27 05:43:42;;;;;;;17.63;4.27;;;;;-2.40;95655.00;;;;7395043;19;20172;-82
2024/01/27 05:46:10;;;;;;;11.70;3.90;;;;;-2.40;95667.00;;;;7397440;19;20145;-82
2024/01/27 05:48:44;;;;;;;13.50;4.20;;;;;-2.50;95667.00;;;;7395488;19;20146;-83
2024/01/27 05:51:12;;;;;;;18.23;4.53;;;;;-2.50;95663.00;;;;7396707;19;20159;-82
2024/01/27 05:53:46;;;;;;;15.83;4.07;;;;;-2.40;95670.00;;;;7395714;19;20148;-85
2024/01/27 05:56:14;;;;;;;17.67;4.47;;;;;-2.50;95663.00;;;;7398149;19;20133;-84
2024/01/27 05:58:49;;;;;;;18.67;4.20;;;;;-2.40;95660.00;;;;7398891;19;20136;-83
2024/01/27 06:01:22;;;;;;;19.00;4.77;;;;;-2.40;95670.00;;;;7393664;19;20629;-82
2024/01/27 06:03:58;;;;;;;14.97;4.03;;;;;-2.40;95672.00;;;;7400073;19;20458;-82
2024/01/27 06:06:26;;;;;;;12.10;4.20;;;;;-2.50;95668.00;;;;7395550;19;20137;-82
2024/01/27 06:09:03;;;;;;;15.27;4.30;;;;;-2.50;95674.00;;;;7397178;19;20169;-82
2024/01/27 06:11:31;;;;;;;10.93;4.53;;;;;-2.60;95677.00;;;;7392678;19;20136;-84
2024/01/27 06:14:06;;;;;;;12.07;3.90;;;;;-2.50;95686.00;;;;7395063;19;20160;-83
2024/01/27 06:16:35;;;;;;;14.70;5.50;;;;;-2.60;95682.00;;;;7393073;19;20204;-79
2024/01/27 06:19:09;;;;;;;13.30;4.10;;;;;-2.50;95674.00;;;;7394137;19;20136;-76
2024/01/27 06:21:37;;;;;;;22.93;3.90;;;;;-2.50;95671.00;;;;7393998;19;20129;-79
2024/01/27 06:24:05;;;;;;;15.20;4.20;;;;;-2.50;95672.00;;;;7394073;19;20185;-77
2024/01/27 06:26:39;;;;;;;14.07;4.03;;;;;-2.40;95684.00;;;;7393389;19;20157;-80
2024/01/27 06:29:13;;;;;;;26.10;4.43;;;;;-2.50;95679.00;;;;7396563;19;20538;-77
2024/01/27 06:31:48;;;;;;;18.20;4.10;;;;;-2.50;95697.00;;;;7394178;19;20211;-77
2024/01/27 06:34:22;;;;;;;8.77;4.23;;;;;-2.50;95688.00;;;;7394385;19;20152;-77
2024/01/27 06:36:56;;;;;;;13.73;3.93;;;;;-2.50;95690.00;;;;7394404;19;20483;-77
2024/01/27 06:39:30;;;;;;;15.33;4.27;;;;;-2.40;95695.00;;;;7394477;19;20148;-77
2024/01/27 06:41:58;;;;;;;14.20;4.20;;;;;-2.30;95687.00;;;;7395688;19;20129;-79
2024/01/27 06:44:25;;;;;;;19.17;5.43;;;;;-2.40;95691.00;;;;7393863;19;20181;-77
2024/01/27 06:47:04;;;;;;;15.87;4.00;;;;;-2.50;95690.00;;;;7394321;19;20145;-77
2024/01/27 06:49:41;;;;;;;22.67;4.23;;;;;-2.40;95696.00;;;;7394559;19;20152;-76
2024/01/27 06:52:12;;;;;;;8.40;4.33;;;;;-2.20;95693.00;;;;7393203;19;20148;-78
2024/01/27 06:54:47;;;;;;;16.60;4.70;;;;;-2.20;95689.00;;;;7395151;19;20612;-77
2024/01/27 06:57:22;;;;;;;18.63;4.90;;;;;-2.00;95687.00;;;;7394267;19;20866;-82
2024/01/27 06:59:58;;;;;;;18.50;5.27;;;;;-1.80;95675.00;;;;7393369;19;20577;-76
2024/01/27 07:02:41;;;;;;;16.37;5.30;;;;;-1.40;95681.00;;;;7393258;19;20145;-77
2024/01/27 07:05:09;;;;;;;12.00;5.00;;;;;-1.40;95679.00;;;;7394447;19;20458;-79
2024/01/27 07:07:45;;;;;;;18.80;5.40;;;;;-1.40;95689.00;;;;7393385;19;20148;-77
2024/01/27 07:10:20;;;;;;;15.43;5.40;;;;;-1.40;95698.00;;;;7393177;19;20612;-79
2024/01/27 07:12:54;;;;;;;13.07;5.00;;;;;-1.30;95682.00;;;;7391926;19;20488;-79
2024/01/27 07:15:23;;;;;;;24.03;4.90;;;;;-1.30;95682.00;;;;7393569;19;20173;-80
2024/01/27 07:17:57;;;;;;;24.57;5.83;;;;;-1.30;95685.00;;;;7395162;19;20581;-80
2024/01/27 07:20:26;;;;;;;19.23;6.23;;;;;-1.30;95680.00;;;;7393540;19;20157;-79
2024/01/27 07:23:00;;;;;;;12.30;5.37;;;;;-1.00;95696.00;;;;7392725;19;20557;-79
2024/01/27 07:25:29;;;;;;;17.70;5.73;;;;;-1.00;95689.00;;;;7393801;19;20212;-80
2024/01/27 07:28:04;;;;;;;19.87;6.83;;;;;-0.80;95682.00;;;;7393102;19;20145;-80
2024/01/27 07:30:32;;;;;;;22.50;6.97;;;;;-0.60;95685.00;;;;7393027;19;20140;-80
2024/01/27 07:33:00;;;;;;;24.60;8.07;;;;;-0.70;95694.00;;;;7393616;19;20173;-81
2024/01/27 07:35:34;;;;;;;15.97;6.27;;;;;-0.60;95693.00;;;;7395383;19;20215;-82
2024/01/27 07:38:02;;;;;;;17.73;6.20;;;;;-0.50;95689.00;;;;7392857;19;20137;-80
2024/01/27 07:40:38;;;;;;;19.27;5.30;;;;;-0.60;95690.00;;;;7392240;19;20152;-80
2024/01/27 07:43:06;;;;;;;14.77;5.60;;;;;-0.50;95692.00;;;;7393218;19;20235;-82
2024/01/27 07:45:47;;;;;;;21.50;6.07;;;;;-0.30;95696.00;;;;7392809;19;20620;-82
2024/01/27 07:48:22;;;;;;;15.97;5.73;;;;;-0.40;95696.00;;;;7394417;19;20592;-81
2024/01/27 07:50:57;;;;;;;15.60;5.90;;;;;-0.20;95687.00;;;;7395114;19;20154;-81
2024/01/27 07:53:33;;;;;;;23.23;6.03;;;;;0.70;95638.00;;;;7395837;19;20148;-83
2024/01/27 07:56:08;;;;;;;14.43;6.03;;;;;1.60;95607.00;;;;7395297;19;20160;-81
2024/01/27 07:58:43;;;;;;;14.40;6.37;;;;;2.10;95620.00;;;;7397658;19;20862;-81
2024/01/27 08:01:24;;;;;;;17.60;6.20;;;;;2.50;95620.00;;;;7395479;19;20519;-80
2024/01/27 08:03:52;;;;;;;22.23;6.13;;;;;2.60;95627.00;;;;7390684;19;20199;-81
2024/01/27 08:06:32;;;;;;;15.47;5.77;;;;;2.70;95634.00;;;;7387448;19;20596;-80
2024/01/27 08:08:59;;;;;;;16.30;6.50;;;;;2.90;95631.00;;;;7390363;19;20169;-80
2024/01/27 08:11:34;;;;;;;19.67;6.70;;;;;3.10;95629.00;;;;7393783;19;20195;-79
2024/01/27 08:14:09;;;;;;;13.93;4.90;;;;;3.30;95640.00;;;;7389475;19;20141;-81
2024/01/27 08:16:43;;;;;;;8.63;4.60;;;;;3.20;95634.00;;;;7390004;19;20155;-78
2024/01/27 08:19:20;;;;;;;14.20;4.27;;;;;3.20;95628.00;;;;7390461;19;20168;-79
2024/01/27 08:21:54;;;;;;;15.43;4.43;;;;;3.40;95621.00;;;;7388330;19;20188;-79
2024/01/27 08:24:24;;;;;;;11.87;4.17;;;;;3.60;95614.00;;;;7387659;19;20125;-78
2024/01/27 08:27:00;;;;;;;9.17;3.07;;;;;3.80;95617.00;;;;7389808;19;20157;-78
2024/01/27 08:29:28;;;;;;;8.50;2.63;;;;;3.90;95622.00;;;;7385926;19;22988;-79
2024/01/27 08:32:02;;;;;;;9.53;3.10;;;;;4.00;95625.00;;;;7388398;19;20136;-79
2024/01/27 08:34:30;;;;;;;6.67;2.90;;;;;3.90;95633.00;;;;7390012;19;20184;-79
2024/01/27 08:37:18;;;;;;;9.23;2.87;;;;;4.10;95624.00;;;;7389420;19;20149;-79
2024/01/27 08:39:46;;;;;;;6.67;2.27;;;;;3.70;95634.00;;;;7391760;19;20128;-79
2024/01/27 08:42:21;;;;;;;22.17;10.07;;;;;3.90;95630.00;;;;7390653;19;20169;-77
2024/01/27 08:44:49;;;;;;;18.37;8.47;;;;;4.60;95624.00;;;;7388833;19;20547;-78
2024/01/27 08:47:23;;;;;;;46.23;23.73;;;;;4.90;95616.00;;;;7388618;19;20212;-77
2024/01/27 08:49:57;;;;;;;68.97;34.00;;;;;5.70;95628.00;;;;7390837;19;20707;-78
2024/01/27 08:52:31;;;;;;;6.73;2.27;;;;;4.90;95616.00;;;;7391455;19;20498;-79
2024/01/27 08:55:02;;;;;;;16.03;2.47;;;;;5.70;95645.00;;;;7384403;19;20148;-78
2024/01/27 08:57:30;;;;;;;8.13;3.20;;;;;6.30;95643.00;;;;7391492;19;21873;-78
2024/01/27 09:00:12;;;;;;;9.30;2.80;;;;;6.40;95650.00;;;;7392133;19;20175;-79
2024/01/27 09:02:41;;;;;;;10.33;2.60;;;;;5.70;95667.00;;;;7392436;19;21030;-78
2024/01/27 09:05:15;;;;;;;9.13;3.03;;;;;5.90;95666.00;;;;7392739;19;20168;-80
2024/01/27 09:07:47;;;;;;;7.73;2.70;;;;;5.80;95679.00;;;;7392643;19;20141;-81
2024/01/27 09:10:21;;;;;;;7.10;2.37;;;;;6.30;95674.00;;;;7394327;19;20149;-80
2024/01/27 09:12:56;;;;;;;7.13;2.63;;;;;6.70;95670.00;;;;7393900;19;20173;-79
2024/01/27 09:15:24;;;;;;;8.37;2.20;;;;;6.60;95666.00;;;;7393080;19;20485;-80
2024/01/27 09:17:58;;;;;;;7.37;2.40;;;;;7.10;95672.00;;;;7391306;19;20773;-80
2024/01/27 09:20:27;;;;;;;7.43;2.30;;;;;6.80;95668.00;;;;7390441;19;20154;-80
2024/01/27 09:23:02;;;;;;;5.60;2.50;;;;;7.50;95675.00;;;;7392254;19;20151;-80
2024/01/27 09:25:31;;;;;;;9.43;3.10;;;;;7.70;95677.00;;;;7391302;19;20208;-81
2024/01/27 09:28:06;;;;;;;7.80;2.70;;;;;7.10;95674.00;;;;7392791;19;20148;-81
2024/01/27 09:30:42;;;;;;;9.07;2.60;;;;;7.70;95668.00;;;;7391584;19;20206;-82
2024/01/27 09:33:22;;;;;;;7.03;2.73;;;;;8.00;95675.00;;;;7389975;19;20152;-81
2024/01/27 09:35:58;;;;;;;8.70;2.40;;;;;8.40;95675.00;;;;7389958;19;20593;-82
2024/01/27 09:38:30;;;;;;;5.30;2.63;;;;;8.90;95679.00;;;;7390871;19;20149;-81
2024/01/27 09:41:05;;;;;;;10.80;2.50;;;;;8.70;95677.00;;;;7387643;19;20184;-80
2024/01/27 09:43:47;;;;;;;6.73;2.13;;;;;9.40;95680.00;;;;7390813;19;20176;-81
2024/01/27 09:46:21;;;;;;;6.13;2.10;;;;;9.70;95687.00;;;;7391485;19;20141;-79
2024/01/27 09:48:49;;;;;;;7.40;2.30;;;;;10.20;95685.00;;;;7389152;19;20181;-81
2024/01/27 09:51:25;;;;;;;4.63;1.77;;;;;10.60;95690.00;;;;7391472;19;20151;-80
2024/01/27 09:53:53;;;;;;;10.13;2.20;;;;;10.90;95684.00;;;;7389044;19;20161;-81
2024/01/27 09:56:28;;;;;;;6.32;1.73;;;;;11.20;95689.00;;;;7394641;19;20168;-81
2024/01/27 09:58:56;;;;;;;4.50;1.85;;;;;11.70;95693.00;;;;7396494;19;20145;-82
2024/01/27 10:01:38;;;;;;;4.90;2.00;;;;;11.40;95685.00;;;;7395970;19;20176;-81
2024/01/27 10:04:09;;;;;;;5.05;1.67;;;;;11.80;95684.00;;;;7397397;19;20136;-82
2024/01/27 10:06:44;;;;;;;4.03;1.73;;;;;12.20;95688.00;;;;7396022;19;20129;-81
2024/01/27 10:09:12;;;;;;;2.75;1.40;;;;;12.30;95685.00;;;;7397297;19;20557;-80
2024/01/27 10:11:47;;;;;;;3.95;1.67;;;;;12.30;95692.00;;;;7395124;19;20172;-80
2024/01/27 10:14:15;;;;;;;3.13;1.60;;;;;12.60;95689.00;;;;7395178;19;20208;-81
2024/01/27 10:16:49;;;;;;;2.13;1.27;;;;;12.50;95691.00;;;;7394533;19;20153;-81
2024/01/27 10:19:23;;;;;;;5.70;1.45;;;;;13.50;95671.00;;;;7395384;19;20137;-82
2024/01/27 10:22:02;;;;;;;2.83;1.23;;;;;12.90;95666.00;;;;7395556;19;20182;-80
2024/01/27 10:24:35;;;;;;;4.22;2.00;;;;;12.80;95673.00;;;;7396486;19;20145;-79
2024/01/27 10:27:10;;;;;;;3.03;1.40;;;;;10.20;95680.00;;;;7395561;19;21170;-79
2024/01/27 10:30:07;;;;;;;2.65;1.38;;;;;8.50;95681.00;;;;7395532;19;20504;-80
2024/01/27 10:32:42;;;;;;;3.97;1.25;;;;;9.30;95672.00;;;;7394727;19;20153;-80
2024/01/27 10:35:10;;;;;;;4.57;1.17;;;;;10.20;95659.00;;;;7394111;19;20145;-80
2024/01/27 10:37:44;;;;;;;4.85;2.08;;;;;12.10;95667.00;;;;7393016;19;20158;-81
2024/01/27 10:40:21;;;;;;;8.07;3.08;;;;;11.00;95657.00;;;;7394392;19;20580;-82
2024/01/27 10:43:09;;;;;;;4.80;2.17;;;;;10.00;95654.00;;;;7394370;19;20176;-81
2024/01/27 10:45:39;;;;;;;7.00;2.10;;;;;9.70;95664.00;;;;7394300;19;20133;-81
2024/01/27 10:48:14;;;;;;;4.30;2.05;;;;;9.80;95666.00;;;;7395841;19;20144;-81
2024/01/27 10:50:43;;;;;;;7.03;2.75;;;;;9.90;95679.00;;;;7394986;19;20642;-81
2024/01/27 10:53:27;;;;;;;5.70;2.67;;;;;9.70;95686.00;;;;7393705;19;20181;-81
2024/01/27 10:56:03;;;;;;;4.32;2.50;;;;;8.30;95683.00;;;;7392515;19;20155;-81
2024/01/27 10:58:34;;;;;;;8.45;2.97;;;;;10.00;95689.00;;;;7394238;19;20173;-77
2024/01/27 11:01:22;;;;;;;4.75;2.30;;;;;8.80;95688.00;;;;7394265;19;20168;-77
2024/01/27 11:03:57;;;;;;;7.53;3.35;;;;;8.40;95681.00;;;;7393915;19;20152;-80
2024/01/27 11:06:34;;;;;;;6.53;3.10;;;;;8.30;95683.00;;;;7392751;19;20169;-76
2024/01/27 11:09:11;;;;;;;4.80;2.92;;;;;8.30;95694.00;;;;7393566;19;20136;-79
2024/01/27 11:11:47;;;;;;;6.93;2.88;;;;;9.80;95691.00;;;;7391743;19;20144;-82
2024/01/27 11:14:21;;;;;;;5.88;3.10;;;;;10.00;95681.00;;;;7393276;19;20164;-77
2024/01/27 11:16:55;;;;;;;7.78;3.15;;;;;10.90;95679.00;;;;7393697;19;20596;-76
2024/01/27 11:19:29;;;;;;;5.57;3.05;;;;;11.30;95672.00;;;;7393643;19;20208;-75
2024/01/27 11:22:04;;;;;;;4.00;2.50;;;;;11.80;95674.00;;;;7393870;19;20151;-78
2024/01/27 11:24:38;;;;;;;4.75;2.72;;;;;12.10;95675.00;;;;7392433;19;20144;-78
2024/01/27 11:27:07;;;;;;;6.45;2.92;;;;;12.00;95680.00;;;;7391958;19;20137;-77
2024/01/27 11:29:46;;;;;;;8.38;2.70;;;;;13.10;95678.00;;;;7393194;19;20151;-79
2024/01/27 11:32:21;;;;;;;8.57;3.30;;;;;13.10;95678.00;;;;7393010;19;20140;-77
2024/01/27 11:34:50;;;;;;;7.45;2.78;;;;;12.50;95673.00;;;;7393566;19;20173;-76
2024/01/27 11:37:30;;;;;;;9.10;3.10;;;;;11.80;95672.00;;;;7392474;19;20488;-76
2024/01/27 11:40:07;;;;;;;4.15;2.40;;;;;12.20;95671.00;;;;7392485;19;20157;-75
2024/01/27 11:42:42;;;;;;;6.38;2.30;;;;;13.30;95676.00;;;;7393780;19;20149;-80
2024/01/27 11:45:10;;;;;;;5.93;2.53;;;;;12.40;95665.00;;;;7393171;19;20470;-75
2024/01/27 11:47:45;;;;;;;5.30;2.35;;;;;12.20;95667.00;;;;7390400;19;20165;-76
2024/01/27 11:50:20;;;;;;;4.80;2.20;;;;;12.00;95656.00;;;;7392949;19;20148;-76
2024/01/27 11:52:49;;;;;;;3.78;2.20;;;;;11.20;95645.00;;;;7394450;19;20177;-80
2024/01/27 11:55:23;;;;;;;4.32;2.08;;;;;12.70;95643.00;;;;7392017;19;20596;-77
2024/01/27 11:57:57;;;;;;;4.20;2.10;;;;;11.50;95640.00;;;;7393517;19;20164;-77
2024/01/27 12:00:45;;;;;;;6.63;2.50;;;;;11.20;95642.00;;;;7391991;19;20180;-76
2024/01/27 12:03:20;;;;;;;3.42;2.45;;;;;12.40;95639.00;;;;7391527;19;20181;-79
2024/01/27 12:05:55;;;;;;;5.70;1.83;;;;;12.20;95632.00;;;;7392450;19;20132;-78
2024/01/27 12:08:23;;;;;;;3.65;1.48;;;;;12.50;95637.00;;;;7393362;19;20145;-80
2024/01/27 12:10:51;;;;;;;4.45;2.00;;;;;11.00;95642.00;;;;7393875;19;20157;-78
2024/01/27 12:13:30;;;;;;;2.70;1.40;;;;;11.20;95629.00;;;;7395116;19;20165;-79
2024/01/27 12:15:59;;;;;;;4.97;2.00;;;;;10.80;95622.00;;;;7394525;19;20145;-78
2024/01/27 12:18:34;;;;;;;2.92;1.55;;;;;10.00;95617.00;;;;7388856;19;20140;-77
2024/01/27 12:21:03;;;;;;;7.82;2.00;;;;;11.00;95623.00;;;;7392640;19;20141;-78
2024/01/27 12:23:51;;;;;;;4.35;2.10;;;;;10.20;95628.00;;;;7392086;19;20140;-78
2024/01/27 12:26:39;;;;;;;5.18;1.85;;;;;11.10;95633.00;;;;7391424;19;20148;-77
2024/01/27 12:29:13;;;;;;;6.47;2.40;;;;;10.70;95626.00;;;;7392093;19;20672;-78
2024/01/27 12:31:42;;;;;;;4.57;1.92;;;;;10.60;95624.00;;;;7393799;19;20141;-80
2024/01/27 12:34:18;;;;;;;3.38;1.40;;;;;9.40;95620.00;;;;7394344;19;20133;-79
2024/01/27 12:36:53;;;;;;;4.55;1.80;;;;;9.70;95619.00;;;;7392986;19;20152;-78
2024/01/27 12:39:27;;;;;;;2.45;1.50;;;;;11.10;95619.00;;;;7391635;19;20513;-80
2024/01/27 12:42:01;;;;;;;4.10;2.00;;;;;11.60;95616.00;;;;7393369;19;20222;-77